Cat Express — WDD7921 — position and weather

sailwx.info

Track history (hours):
 
Tides and Currents Weather Stations Pressure Air Temp Water Temp Dewpoint Dewpoint Depression Visibility Wind Speed Wind Dir Waves Ship Positions

Cat Express

Owner: Catalina Channel Express, San Pedro, CA. More information available from US FCC via Universal Licensing System and Coast Guard Vessel Documentation Center.

Last reported at 2017-Oct-30 01:22 UTC. Time now 2017-Nov-20 02:05 UTC.
Position N 33°41' W 118°15'.
Warning: this ship's position is 21 days out of date.

Length 29 m.

Type: Passenger vessel. MMSI: 367192970.

Date/timePositionNaut miles runAvg speedWind from/ knotsBaromVisibWave heightAir tempDewpointWater temp
2017-Oct-30 01:22N 33°41' W 118°15'2024.7
2017-Oct-30 00:35N 33°21' W 118°19'20 5.2
2017-Oct-29 20:44N 33°41' W 118°15'1925.5
2017-Oct-29 20:00N 33°23' W 118°20'2 1.6
2017-Oct-29 18:53N 33°22' W 118°19'23 4.0
2017-Oct-29 13:10N 33°45' W 118°16'0 0.0
2017-Oct-29 13:00N 33°45' W 118°16'0 0.0
2017-Oct-29 07:18N 33°45' W 118°16'0 0.0
2017-Oct-29 06:57N 33°45' W 118°16'0 0.0
2017-Oct-29 06:30N 33°45' W 118°16'0 0.0
2017-Oct-29 06:00N 33°45' W 118°16'0 0.0
2017-Oct-29 05:30N 33°45' W 118°16'0 0.0
2017-Oct-29 05:00N 33°45' W 118°16'0 0.0
2017-Oct-29 04:30N 33°45' W 118°16'0 0.0
2017-Oct-29 04:00N 33°45' W 118°16'12 1.3
2017-Oct-28 19:00N 33°34' W 118°22'9 8.7
2017-Oct-28 18:00N 33°27' W 118°28'20 4.5
2017-Oct-28 13:25N 33°45' W 118°16'0 0.0
2017-Oct-28 13:00N 33°45' W 118°16'0 0.0
2017-Oct-28 04:05N 33°45' W 118°16'0 0.1
2017-Oct-28 04:00N 33°45' W 118°16'510.2
2017-Oct-28 03:31N 33°40' W 118°15'1325.5
2017-Oct-28 03:00N 33°28' W 118°19'611.1
2017-Oct-28 02:30N 33°22' W 118°21'713.7
2017-Oct-28 02:00N 33°29' W 118°19'1123.1
2017-Oct-28 01:30N 33°40' W 118°15'510.5
2017-Oct-28 01:00N 33°45' W 118°16'0 0.0
2017-Oct-28 00:30N 33°45' W 118°16'0 0.0
2017-Oct-28 00:00N 33°45' W 118°16'0 0.0
2017-Oct-27 23:30N 33°45' W 118°16'0 0.0
2017-Oct-27 23:00N 33°45' W 118°16'0 0.0
2017-Oct-27 22:30N 33°45' W 118°16'0 0.0
2017-Oct-27 22:00N 33°45' W 118°16'0 0.0
2017-Oct-27 21:30N 33°45' W 118°16'0 0.0
2017-Oct-27 21:00N 33°45' W 118°16'0 0.0
2017-Oct-27 20:30N 33°45' W 118°16'0 0.0
2017-Oct-27 20:00N 33°45' W 118°16'4 7.1
2017-Oct-27 19:31N 33°42' W 118°15'1325.7
2017-Oct-27 18:59N 33°31' W 118°25'5 6.3
2017-Oct-27 18:13N 33°27' W 118°29'625.6
2017-Oct-27 18:00N 33°25' W 118°22'4 5.0
2017-Oct-27 17:14N 33°23' W 118°19'623.4
2017-Oct-27 16:59N 33°28' W 118°17'1123.6
2017-Oct-27 16:31N 33°39' W 118°15'611.3
2017-Oct-27 16:00N 33°45' W 118°16'0 0.0
2017-Oct-27 15:30N 33°45' W 118°16'0 0.0
2017-Oct-27 15:00N 33°45' W 118°16'0 0.0
2017-Oct-27 14:30N 33°45' W 118°16'0 0.0
2017-Oct-27 14:00N 33°45' W 118°16'0 0.0
2017-Oct-27 13:30N 33°45' W 118°16'0 0.0
2017-Oct-27 13:00N 33°45' W 118°16'0 0.0
2017-Oct-27 12:30N 33°45' W 118°16'0 0.0
2017-Oct-25 19:46N 33°45' W 118°16'1 5.0
2017-Oct-25 19:30N 33°44' W 118°16'7 2.2
2017-Oct-25 16:31N 33°37' W 118°16'026.4
2017-Oct-25 16:31N 33°37' W 118°16'815.5
2017-Oct-25 16:00N 33°45' W 118°17'0 0.3
2017-Oct-25 15:30N 33°45' W 118°16'0 0.0
2017-Oct-25 15:00N 33°45' W 118°16'0 0.0
2017-Oct-25 14:30N 33°45' W 118°16'0 0.0
2017-Oct-25 14:00N 33°45' W 118°16'0 0.0
2017-Oct-25 13:30N 33°45' W 118°16'0 0.0
2017-Oct-25 13:00N 33°45' W 118°16'0 0.0
2017-Oct-23 20:33N 33°45' W 118°16'0 0.2
2017-Oct-23 20:31N 33°45' W 118°16'0 0.0
2017-Oct-23 20:01N 33°45' W 118°16'0 0.0
2017-Oct-23 19:31N 33°45' W 118°16'511.0
2017-Oct-23 19:01N 33°39' W 118°17'1811.4
2017-Oct-23 17:27N 33°22' W 118°20'1613.2
2017-Oct-23 16:15N 33°37' W 118°16'622.1
2017-Oct-23 16:00N 33°43' W 118°16'2 3.8
2017-Oct-23 15:30N 33°45' W 118°16'0 0.0
2017-Oct-23 15:00N 33°45' W 118°16'0 0.0
2017-Oct-23 14:22N 33°45' W 118°16'0 0.0
2017-Oct-23 13:58N 33°45' W 118°16'0 0.0
2017-Oct-23 13:29N 33°45' W 118°16'0 0.0
2017-Oct-23 12:54N 33°45' W 118°16'0 0.0
2017-Oct-23 12:27N 33°45' W 118°16'0 0.0
2017-Oct-23 03:28N 33°45' W 118°16'3 6.4
2017-Oct-23 03:00N 33°42' W 118°15'1224.1
2017-Oct-23 02:30N 33°30' W 118°17'1 0.4
2017-Oct-23 00:57N 33°30' W 118°17'1125.2
2017-Oct-23 00:31N 33°41' W 118°15'4 8.4
2017-Oct-23 00:00N 33°45' W 118°16'0 0.0
2017-Oct-22 23:30N 33°45' W 118°16'0 0.0
2017-Oct-22 23:00N 33°45' W 118°16'0 0.0
2017-Oct-22 22:30N 33°45' W 118°16'510.1
2017-Oct-22 22:01N 33°40' W 118°17'1 0.5
2017-Oct-22 19:58N 33°39' W 118°17'612.8
2017-Oct-22 19:30N 33°45' W 118°16'0 0.0
2017-Oct-22 19:00N 33°45' W 118°16'1 2.8
2017-Oct-22 18:31N 33°44' W 118°16'1622.9
2017-Oct-22 17:47N 33°27' W 118°17'4 4.0
2017-Oct-22 16:49N 33°23' W 118°19'1225.1
2017-Oct-22 16:20N 33°35' W 118°17'823.6
2017-Oct-22 16:00N 33°43' W 118°16'2 3.7
2017-Oct-22 15:28N 33°45' W 118°16'0 0.0
2017-Oct-22 13:39N 33°45' W 118°16'0 0.0
2017-Oct-22 13:23N 33°45' W 118°16'0 0.0
2017-Oct-22 12:47N 33°45' W 118°16'0 0.0
2017-Oct-22 12:27N 33°45' W 118°16'0 0.0
2017-Oct-22 01:50N 33°45' W 118°16'3 8.6
2017-Oct-22 01:30N 33°42' W 118°15'1224.0
2017-Oct-22 01:00N 33°30' W 118°16'10 8.0
2017-Oct-21 23:45N 33°21' W 118°19'621.3
2017-Oct-21 23:28N 33°26' W 118°17'1225.4
2017-Oct-21 23:01N 33°38' W 118°16'712.4
2017-Oct-21 22:27N 33°45' W 118°16'0 0.0
2017-Oct-21 22:00N 33°45' W 118°16'0 0.0
2017-Oct-21 21:30N 33°45' W 118°16'0 0.0
2017-Oct-21 20:59N 33°45' W 118°16'0 0.0
2017-Oct-21 20:30N 33°45' W 118°16'0 0.0
2017-Oct-21 20:00N 33°45' W 118°16'0 0.0
2017-Oct-21 19:29N 33°45' W 118°16'0 0.0
2017-Oct-21 19:00N 33°45' W 118°16'1 2.2
2017-Oct-21 18:30N 33°44' W 118°16'6 3.1
2017-Oct-21 16:31N 33°38' W 118°16'126.1
2017-Oct-21 16:30N 33°38' W 118°16'712.0
2017-Oct-21 15:57N 33°45' W 118°16'0 0.0
2017-Oct-21 15:29N 33°45' W 118°16'0 0.0
2017-Oct-21 14:20N 33°45' W 118°16'0 0.0
2017-Oct-21 13:19N 33°45' W 118°16'0 0.0
2017-Oct-21 12:53N 33°45' W 118°16'1 0.1
2017-Oct-20 23:06N 33°44' W 118°16'111.4
2017-Oct-20 23:00N 33°43' W 118°15'4 1.2
2017-Oct-20 19:59N 33°40' W 118°18'510.9
2017-Oct-20 19:30N 33°45' W 118°16'0 0.0
2017-Oct-20 19:00N 33°45' W 118°16'2 3.3
2017-Oct-20 18:30N 33°43' W 118°16'7 3.4
2017-Oct-20 16:22N 33°36' W 118°16'719.2
2017-Oct-20 16:00N 33°43' W 118°16'2 2.8
2017-Oct-20 15:28N 33°45' W 118°16'0 0.0
2017-Oct-20 14:46N 33°45' W 118°16'0 0.0
2017-Oct-20 14:22N 33°45' W 118°16'0 0.0
2017-Oct-20 12:57N 33°45' W 118°16'  
Track history (hours):
 
Tides and Currents Weather Stations Pressure Air Temp Water Temp Dewpoint Dewpoint Depression Visibility Wind Speed Wind Dir Waves Ship Positions

Cat Express

Owner: Catalina Channel Express, San Pedro, CA. More information available from US FCC via Universal Licensing System and Coast Guard Vessel Documentation Center.

Last reported at 2017-Oct-30 01:22 UTC. Time now 2017-Nov-20 02:05 UTC.
Position N 33°41' W 118°15'.
Warning: this ship's position is 21 days out of date.

Length 29 m.

Type: Passenger vessel. MMSI: 367192970.

Date/timePositionNaut miles runAvg speedWind from/ knotsBaromVisibWave heightAir tempDewpointWater temp
2017-Oct-30 01:22N 33°41' W 118°15'2024.7
2017-Oct-30 00:35N 33°21' W 118°19'20 5.2
2017-Oct-29 20:44N 33°41' W 118°15'1925.5
2017-Oct-29 20:00N 33°23' W 118°20'2 1.6
2017-Oct-29 18:53N 33°22' W 118°19'23 4.0
2017-Oct-29 13:10N 33°45' W 118°16'0 0.0
2017-Oct-29 13:00N 33°45' W 118°16'0 0.0
2017-Oct-29 07:18N 33°45' W 118°16'0 0.0
2017-Oct-29 06:57N 33°45' W 118°16'0 0.0
2017-Oct-29 06:30N 33°45' W 118°16'0 0.0
2017-Oct-29 06:00N 33°45' W 118°16'0 0.0
2017-Oct-29 05:30N 33°45' W 118°16'0 0.0
2017-Oct-29 05:00N 33°45' W 118°16'0 0.0
2017-Oct-29 04:30N 33°45' W 118°16'0 0.0
2017-Oct-29 04:00N 33°45' W 118°16'12 1.3
2017-Oct-28 19:00N 33°34' W 118°22'9 8.7
2017-Oct-28 18:00N 33°27' W 118°28'20 4.5
2017-Oct-28 13:25N 33°45' W 118°16'0 0.0
2017-Oct-28 13:00N 33°45' W 118°16'0 0.0
2017-Oct-28 04:05N 33°45' W 118°16'0 0.1
2017-Oct-28 04:00N 33°45' W 118°16'510.2
2017-Oct-28 03:31N 33°40' W 118°15'1325.5
2017-Oct-28 03:00N 33°28' W 118°19'611.1
2017-Oct-28 02:30N 33°22' W 118°21'713.7
2017-Oct-28 02:00N 33°29' W 118°19'1123.1
2017-Oct-28 01:30N 33°40' W 118°15'510.5
2017-Oct-28 01:00N 33°45' W 118°16'0 0.0
2017-Oct-28 00:30N 33°45' W 118°16'0 0.0
2017-Oct-28 00:00N 33°45' W 118°16'0 0.0
2017-Oct-27 23:30N 33°45' W 118°16'0 0.0
2017-Oct-27 23:00N 33°45' W 118°16'0 0.0
2017-Oct-27 22:30N 33°45' W 118°16'0 0.0
2017-Oct-27 22:00N 33°45' W 118°16'0 0.0
2017-Oct-27 21:30N 33°45' W 118°16'0 0.0
2017-Oct-27 21:00N 33°45' W 118°16'0 0.0
2017-Oct-27 20:30N 33°45' W 118°16'0 0.0
2017-Oct-27 20:00N 33°45' W 118°16'4 7.1
2017-Oct-27 19:31N 33°42' W 118°15'1325.7
2017-Oct-27 18:59N 33°31' W 118°25'5 6.3
2017-Oct-27 18:13N 33°27' W 118°29'625.6
2017-Oct-27 18:00N 33°25' W 118°22'4 5.0
2017-Oct-27 17:14N 33°23' W 118°19'623.4
2017-Oct-27 16:59N 33°28' W 118°17'1123.6
2017-Oct-27 16:31N 33°39' W 118°15'611.3
2017-Oct-27 16:00N 33°45' W 118°16'0 0.0
2017-Oct-27 15:30N 33°45' W 118°16'0 0.0
2017-Oct-27 15:00N 33°45' W 118°16'0 0.0
2017-Oct-27 14:30N 33°45' W 118°16'0 0.0
2017-Oct-27 14:00N 33°45' W 118°16'0 0.0
2017-Oct-27 13:30N 33°45' W 118°16'0 0.0
2017-Oct-27 13:00N 33°45' W 118°16'0 0.0
2017-Oct-27 12:30N 33°45' W 118°16'0 0.0
2017-Oct-25 19:46N 33°45' W 118°16'1 5.0
2017-Oct-25 19:30N 33°44' W 118°16'7 2.2
2017-Oct-25 16:31N 33°37' W 118°16'026.4
2017-Oct-25 16:31N 33°37' W 118°16'815.5
2017-Oct-25 16:00N 33°45' W 118°17'0 0.3
2017-Oct-25 15:30N 33°45' W 118°16'0 0.0
2017-Oct-25 15:00N 33°45' W 118°16'0 0.0
2017-Oct-25 14:30N 33°45' W 118°16'0 0.0
2017-Oct-25 14:00N 33°45' W 118°16'0 0.0
2017-Oct-25 13:30N 33°45' W 118°16'0 0.0
2017-Oct-25 13:00N 33°45' W 118°16'0 0.0
2017-Oct-23 20:33N 33°45' W 118°16'0 0.2
2017-Oct-23 20:31N 33°45' W 118°16'0 0.0
2017-Oct-23 20:01N 33°45' W 118°16'0 0.0
2017-Oct-23 19:31N 33°45' W 118°16'511.0
2017-Oct-23 19:01N 33°39' W 118°17'1811.4
2017-Oct-23 17:27N 33°22' W 118°20'1613.2
2017-Oct-23 16:15N 33°37' W 118°16'622.1
2017-Oct-23 16:00N 33°43' W 118°16'2 3.8
2017-Oct-23 15:30N 33°45' W 118°16'0 0.0
2017-Oct-23 15:00N 33°45' W 118°16'0 0.0
2017-Oct-23 14:22N 33°45' W 118°16'0 0.0
2017-Oct-23 13:58N 33°45' W 118°16'0 0.0
2017-Oct-23 13:29N 33°45' W 118°16'0 0.0
2017-Oct-23 12:54N 33°45' W 118°16'0 0.0
2017-Oct-23 12:27N 33°45' W 118°16'0 0.0
2017-Oct-23 03:28N 33°45' W 118°16'3 6.4
2017-Oct-23 03:00N 33°42' W 118°15'1224.1
2017-Oct-23 02:30N 33°30' W 118°17'1 0.4
2017-Oct-23 00:57N 33°30' W 118°17'1125.2
2017-Oct-23 00:31N 33°41' W 118°15'4 8.4
2017-Oct-23 00:00N 33°45' W 118°16'0 0.0
2017-Oct-22 23:30N 33°45' W 118°16'0 0.0
2017-Oct-22 23:00N 33°45' W 118°16'0 0.0
2017-Oct-22 22:30N 33°45' W 118°16'510.1
2017-Oct-22 22:01N 33°40' W 118°17'1 0.5
2017-Oct-22 19:58N 33°39' W 118°17'612.8
2017-Oct-22 19:30N 33°45' W 118°16'0 0.0
2017-Oct-22 19:00N 33°45' W 118°16'1 2.8
2017-Oct-22 18:31N 33°44' W 118°16'1622.9
2017-Oct-22 17:47N 33°27' W 118°17'4 4.0
2017-Oct-22 16:49N 33°23' W 118°19'1225.1
2017-Oct-22 16:20N 33°35' W 118°17'823.6
2017-Oct-22 16:00N 33°43' W 118°16'2 3.7
2017-Oct-22 15:28N 33°45' W 118°16'0 0.0
2017-Oct-22 13:39N 33°45' W 118°16'0 0.0
2017-Oct-22 13:23N 33°45' W 118°16'0 0.0
2017-Oct-22 12:47N 33°45' W 118°16'0 0.0
2017-Oct-22 12:27N 33°45' W 118°16'0 0.0
2017-Oct-22 01:50N 33°45' W 118°16'3 8.6
2017-Oct-22 01:30N 33°42' W 118°15'1224.0
2017-Oct-22 01:00N 33°30' W 118°16'10 8.0
2017-Oct-21 23:45N 33°21' W 118°19'621.3
2017-Oct-21 23:28N 33°26' W 118°17'1225.4
2017-Oct-21 23:01N 33°38' W 118°16'712.4
2017-Oct-21 22:27N 33°45' W 118°16'0 0.0
2017-Oct-21 22:00N 33°45' W 118°16'0 0.0
2017-Oct-21 21:30N 33°45' W 118°16'0 0.0
2017-Oct-21 20:59N 33°45' W 118°16'0 0.0
2017-Oct-21 20:30N 33°45' W 118°16'0 0.0
2017-Oct-21 20:00N 33°45' W 118°16'0 0.0
2017-Oct-21 19:29N 33°45' W 118°16'0 0.0
2017-Oct-21 19:00N 33°45' W 118°16'1 2.2
2017-Oct-21 18:30N 33°44' W 118°16'6 3.1
2017-Oct-21 16:31N 33°38' W 118°16'126.1
2017-Oct-21 16:30N 33°38' W 118°16'712.0
2017-Oct-21 15:57N 33°45' W 118°16'0 0.0
2017-Oct-21 15:29N 33°45' W 118°16'0 0.0
2017-Oct-21 14:20N 33°45' W 118°16'0 0.0
2017-Oct-21 13:19N 33°45' W 118°16'0 0.0
2017-Oct-21 12:53N 33°45' W 118°16'1 0.1
2017-Oct-20 23:06N 33°44' W 118°16'111.4
2017-Oct-20 23:00N 33°43' W 118°15'4 1.2
2017-Oct-20 19:59N 33°40' W 118°18'510.9
2017-Oct-20 19:30N 33°45' W 118°16'0 0.0
2017-Oct-20 19:00N 33°45' W 118°16'2 3.3
2017-Oct-20 18:30N 33°43' W 118°16'7 3.4
2017-Oct-20 16:22N 33°36' W 118°16'719.2
2017-Oct-20 16:00N 33°43' W 118°16'2 2.8
2017-Oct-20 15:28N 33°45' W 118°16'0 0.0
2017-Oct-20 14:46N 33°45' W 118°16'0 0.0
2017-Oct-20 14:22N 33°45' W 118°16'0 0.0
2017-Oct-20 12:57N 33°45' W 118°16'  

Dump ship's entire track history